createdAt,value
2022-10-11T00:01:35.032Z,102572.53
2022-10-11T00:04:01.610Z,102574.16
2022-10-11T00:06:28.092Z,102579.53
2022-10-11T00:08:54.481Z,102579.81
2022-10-11T00:11:21.021Z,102579.56
2022-10-11T00:13:47.758Z,102569.88
2022-10-11T00:16:15.436Z,102573.94
2022-10-11T00:18:42.495Z,102568.31
2022-10-11T00:21:13.113Z,102577.16
2022-10-11T00:23:40.601Z,102571.25
2022-10-11T00:26:09.461Z,102580.97
2022-10-11T00:28:37.074Z,102581.78
2022-10-11T00:31:08.874Z,102578.00
2022-10-11T00:33:41.289Z,102586.38
2022-10-11T00:36:08.988Z,102584.50
2022-10-11T00:38:35.956Z,102592.03
2022-10-11T00:41:02.504Z,102592.59
2022-10-11T00:43:31.145Z,102594.50
2022-10-11T00:45:57.520Z,102593.16
2022-10-11T00:48:33.608Z,102604.47
2022-10-11T00:51:03.010Z,102603.63
2022-10-11T00:53:30.641Z,102609.78
2022-10-11T00:56:09.568Z,102603.88
2022-10-11T00:58:38.633Z,102609.25
2022-10-11T01:01:05.523Z,102604.16
2022-10-11T01:03:35.372Z,102609.53
2022-10-11T01:06:04.107Z,102610.91
2022-10-11T01:08:31.524Z,102614.66
2022-10-11T01:10:58.645Z,102621.38
2022-10-11T01:13:41.347Z,102617.06
2022-10-11T01:16:19.351Z,102622.72
2022-10-11T01:19:23.166Z,102622.72
2022-10-11T01:22:10.491Z,102620.84
2022-10-11T01:24:58.600Z,102629.72
2022-10-11T01:27:51.241Z,102627.03
2022-10-11T01:30:26.776Z,102632.41
2022-10-11T01:33:13.402Z,102629.19
2022-10-11T01:35:45.079Z,102628.38
2022-10-11T01:38:31.103Z,102634.03
2022-10-11T01:41:08.503Z,102635.34
2022-10-11T01:43:37.396Z,102633.47
2022-10-11T01:46:05.442Z,102632.94
2022-10-11T01:48:32.004Z,102633.50
2022-10-11T01:51:02.180Z,102636.69
2022-10-11T01:53:43.991Z,102635.59
2022-10-11T01:56:31.855Z,102631.34
2022-10-11T01:59:28.501Z,102637.75
2022-10-11T02:02:12.069Z,102635.63
2022-10-11T02:04:56.241Z,102639.38
2022-10-11T02:07:31.458Z,102642.34
2022-10-11T02:10:22.328Z,102644.22
2022-10-11T02:12:54.990Z,102649.56
2022-10-11T02:15:22.885Z,102637.75
2022-10-11T02:17:54.407Z,102639.66
2022-10-11T02:20:25.031Z,102639.13
2022-10-11T02:22:56.705Z,102640.44
2022-10-11T02:25:26.583Z,102637.50
2022-10-11T02:27:56.713Z,102639.38
2022-10-11T02:30:23.640Z,102638.84
2022-10-11T02:32:51.688Z,102644.72
2022-10-11T02:35:18.980Z,102643.09
2022-10-11T02:37:53.393Z,102636.16
2022-10-11T02:40:40.676Z,102648.75
2022-10-11T02:43:28.089Z,102655.47
2022-10-11T02:45:58.990Z,102647.69
2022-10-11T02:48:28.484Z,102650.88
2022-10-11T02:50:57.264Z,102653.03
2022-10-11T02:53:24.816Z,102654.38
2022-10-11T02:55:52.858Z,102660.03
2022-10-11T02:58:20.429Z,102655.72
2022-10-11T03:00:46.785Z,102658.16
2022-10-11T03:03:13.156Z,102655.72
2022-10-11T03:05:43.495Z,102656.75
2022-10-11T03:08:12.544Z,102654.09
2022-10-11T03:10:39.740Z,102659.19
2022-10-11T03:13:06.517Z,102654.63
2022-10-11T03:15:33.675Z,102661.59
2022-10-11T03:18:00.058Z,102657.59
2022-10-11T03:20:26.631Z,102664.56
2022-10-11T03:22:53.758Z,102661.06
2022-10-11T03:25:20.124Z,102652.75
2022-10-11T03:27:46.487Z,102658.91
2022-10-11T03:30:17.329Z,102655.97
2022-10-11T03:32:44.688Z,102668.31
2022-10-11T03:35:11.060Z,102658.88
2022-10-11T03:37:37.663Z,102663.44
2022-10-11T03:40:06.648Z,102669.34
2022-10-11T03:42:33.174Z,102666.13
2022-10-11T03:45:01.653Z,102671.75
2022-10-11T03:47:28.183Z,102672.53
2022-10-11T03:49:54.535Z,102678.69
2022-10-11T03:52:20.972Z,102688.88
2022-10-11T03:54:47.931Z,102691.28
2022-10-11T03:57:14.744Z,102690.25
2022-10-11T03:59:41.145Z,102687.06
2022-10-11T04:02:07.710Z,102686.53
2022-10-11T04:04:34.358Z,102690.00
2022-10-11T04:07:00.715Z,102688.63
2022-10-11T04:09:27.156Z,102691.84
2022-10-11T04:11:53.486Z,102694.25
2022-10-11T04:14:20.014Z,102689.19
2022-10-11T04:16:46.623Z,102689.72
2022-10-11T04:19:12.958Z,102689.69
2022-10-11T04:21:39.288Z,102691.28
2022-10-11T04:24:05.973Z,102698.19
2022-10-11T04:26:32.808Z,102704.91
2022-10-11T04:28:59.252Z,102704.59
2022-10-11T04:31:25.816Z,102701.38
2022-10-11T04:33:52.348Z,102716.16
2022-10-11T04:36:18.805Z,102708.38
2022-10-11T04:38:45.149Z,102704.03
2022-10-11T04:41:13.934Z,102712.06
2022-10-11T04:43:40.364Z,102716.63
2022-10-11T04:46:07.549Z,102712.66
2022-10-11T04:48:35.838Z,102706.50
2022-10-11T04:51:02.257Z,102722.63
2022-10-11T04:53:28.672Z,102724.75
2022-10-11T04:56:01.030Z,102721.22
2022-10-11T04:58:29.167Z,102730.59
2022-10-11T05:00:55.916Z,102720.44
2022-10-11T05:03:22.647Z,102724.78
2022-10-11T05:05:49.557Z,102727.19
2022-10-11T05:08:16.312Z,102729.88
2022-10-11T05:10:42.951Z,102729.31
2022-10-11T05:13:09.572Z,102736.00
2022-10-11T05:15:35.941Z,102729.84
2022-10-11T05:18:02.580Z,102733.56
2022-10-11T05:20:29.078Z,102727.63
2022-10-11T05:22:55.544Z,102742.94
2022-10-11T05:25:21.924Z,102734.69
2022-10-11T05:27:48.858Z,102738.69
2022-10-11T05:30:15.749Z,102736.81
2022-10-11T05:32:42.205Z,102740.56
2022-10-11T05:35:08.898Z,102741.88
2022-10-11T05:37:35.471Z,102747.78
2022-10-11T05:40:01.823Z,102740.53
2022-10-11T05:42:28.316Z,102748.59
2022-10-11T05:44:54.691Z,102744.06
2022-10-11T05:47:21.284Z,102742.22
2022-10-11T05:49:47.666Z,102757.00
2022-10-11T05:52:21.566Z,102755.09
2022-10-11T05:54:49.157Z,102750.25
2022-10-11T05:57:16.059Z,102753.25
2022-10-11T05:59:42.536Z,102757.00
2022-10-11T06:02:13.584Z,102762.06
2022-10-11T06:04:40.247Z,102766.34
2022-10-11T06:07:07.056Z,102764.47
2022-10-11T06:09:36.182Z,102766.59
2022-10-11T06:12:02.817Z,102759.94
2022-10-11T06:14:29.688Z,102760.50
2022-10-11T06:16:56.054Z,102770.41
2022-10-11T06:19:22.492Z,102778.19
2022-10-11T06:21:48.992Z,102766.94
2022-10-11T06:24:15.511Z,102778.78
2022-10-11T06:26:42.152Z,102777.41
2022-10-11T06:29:08.604Z,102782.28
2022-10-11T06:31:35.017Z,102783.13
2022-10-11T06:34:01.699Z,102792.78
2022-10-11T06:36:28.616Z,102782.34
2022-10-11T06:38:55.320Z,102791.22
2022-10-11T06:41:25.357Z,102789.66
2022-10-11T06:43:52.370Z,102798.28
2022-10-11T06:46:20.299Z,102789.72
2022-10-11T06:48:48.102Z,102799.41
2022-10-11T06:51:17.736Z,102806.38
2022-10-11T06:53:49.488Z,102802.34
2022-10-11T06:56:15.827Z,102794.03
2022-10-11T06:58:42.228Z,102807.97
2022-10-11T07:01:13.520Z,102809.31
2022-10-11T07:03:40.282Z,102813.34
2022-10-11T07:06:09.999Z,102812.28
2022-10-11T07:08:37.285Z,102813.63
2022-10-11T07:11:06.502Z,102819.00
2022-10-11T07:13:32.916Z,102818.19
2022-10-11T07:16:04.775Z,102825.69
2022-10-11T07:18:31.823Z,102825.69
2022-10-11T07:20:59.336Z,102827.84
2022-10-11T07:23:26.110Z,102828.34
2022-10-11T07:25:54.739Z,102824.00
2022-10-11T07:28:22.295Z,102828.22
2022-10-11T07:30:50.954Z,102829.41
2022-10-11T07:33:18.100Z,102831.91
2022-10-11T07:35:48.194Z,102829.72
2022-10-11T07:38:15.591Z,102834.53
2022-10-11T07:40:44.368Z,102830.56
2022-10-11T07:43:11.925Z,102825.44
2022-10-11T07:45:42.441Z,102839.16
2022-10-11T07:48:09.309Z,102838.44
2022-10-11T07:50:35.915Z,102837.91
2022-10-11T07:53:03.089Z,102833.22
2022-10-11T07:55:31.595Z,102840.22
2022-10-11T07:58:07.860Z,102838.19
2022-10-11T08:00:34.464Z,102844.63
2022-10-11T08:03:04.946Z,102849.56
2022-10-11T08:05:32.228Z,102857.69
2022-10-11T08:07:58.862Z,102854.47
2022-10-11T08:10:26.506Z,102853.97
2022-10-11T08:12:53.813Z,102854.31
2022-10-11T08:15:27.020Z,102854.63
2022-10-11T08:17:53.364Z,102864.31
2022-10-11T08:20:19.913Z,102857.97
2022-10-11T08:22:46.298Z,102866.22
2022-10-11T08:25:12.649Z,102863.13
2022-10-11T08:27:40.326Z,102871.97
2022-10-11T08:30:11.825Z,102869.69
2022-10-11T08:32:38.186Z,102879.91
2022-10-11T08:35:04.955Z,102870.84
2022-10-11T08:37:31.480Z,102869.47
2022-10-11T08:39:57.870Z,102871.72
2022-10-11T08:42:41.579Z,102879.03
2022-10-11T08:45:14.081Z,102878.34
2022-10-11T08:47:44.128Z,102889.50
2022-10-11T08:50:21.765Z,102879.75
2022-10-11T08:52:57.651Z,102884.84
2022-10-11T08:55:36.136Z,102873.91
2022-10-11T08:58:02.721Z,102879.06
2022-10-11T09:00:33.020Z,102879.59
2022-10-11T09:03:08.669Z,102880.25
2022-10-11T09:05:48.385Z,102884.75
2022-10-11T09:08:23.044Z,102874.53
2022-10-11T09:11:01.742Z,102876.88
2022-10-11T09:14:07.352Z,102871.88
2022-10-11T09:17:03.349Z,102879.28
2022-10-11T09:19:52.164Z,102886.09
2022-10-11T09:22:43.377Z,102883.66
2022-10-11T09:25:24.573Z,102881.88
2022-10-11T09:28:06.289Z,102881.75
2022-10-11T09:30:39.441Z,102883.03
2022-10-11T09:33:08.772Z,102885.28
2022-10-11T09:35:46.049Z,102886.78
2022-10-11T09:38:18.844Z,102889.28
2022-10-11T09:40:58.540Z,102887.31
2022-10-11T09:43:25.384Z,102890.13
2022-10-11T09:45:51.852Z,102894.78
2022-10-11T09:48:22.693Z,102898.22
2022-10-11T09:50:50.433Z,102888.56
2022-10-11T09:53:16.948Z,102882.31
2022-10-11T09:55:50.890Z,102897.41
2022-10-11T09:58:35.492Z,102888.81
2022-10-11T10:04:17.114Z,102890.69
2022-10-11T10:06:43.521Z,102894.38
2022-10-11T10:09:30.617Z,102889.47
2022-10-11T10:12:09.918Z,102884.63
2022-10-11T10:14:36.333Z,102891.09
2022-10-11T10:17:06.535Z,102884.50
2022-10-11T10:19:44.698Z,102889.63
2022-10-11T10:22:20.800Z,102888.84
2022-10-11T10:24:49.603Z,102890.59
2022-10-11T10:27:24.607Z,102885.97
2022-10-11T10:30:15.835Z,102884.56
2022-10-11T10:33:04.527Z,102883.66
2022-10-11T10:35:44.633Z,102885.66
2022-10-11T10:38:35.634Z,102882.81
2022-10-11T10:41:09.144Z,102878.06
2022-10-11T10:43:38.375Z,102871.00
2022-10-11T10:46:26.112Z,102873.72
2022-10-11T10:52:41.097Z,102876.31
2022-10-11T10:55:26.421Z,102879.03
2022-10-11T10:58:07.353Z,102880.16
2022-10-11T11:00:44.165Z,102869.25
2022-10-11T11:03:37.315Z,102866.19
2022-10-11T11:06:10.212Z,102869.41
2022-10-11T11:08:57.540Z,102869.09
2022-10-11T11:11:31.830Z,102869.19
2022-10-11T11:14:27.953Z,102868.75
2022-10-11T11:17:13.084Z,102864.41
2022-10-11T11:19:53.580Z,102856.25
2022-10-11T11:22:35.432Z,102859.78
2022-10-11T11:25:19.936Z,102859.13
2022-10-11T11:28:05.910Z,102858.88
2022-10-11T11:31:03.602Z,102853.75
2022-10-11T11:33:52.064Z,102851.69
2022-10-11T11:36:43.686Z,102844.97
2022-10-11T11:39:21.222Z,102849.31
2022-10-11T11:42:02.041Z,102846.34
2022-10-11T11:44:48.037Z,102847.56
2022-10-11T11:47:31.918Z,102852.69
2022-10-11T11:53:24.813Z,102848.50
2022-10-11T11:56:08.935Z,102837.13
2022-10-11T11:59:23.325Z,102842.47
2022-10-11T12:02:14.137Z,102841.13
2022-10-11T12:04:49.001Z,102839.16
2022-10-11T12:09:59.042Z,102839.16
2022-10-11T12:12:33.868Z,102830.19
2022-10-11T12:18:16.496Z,102827.34
2022-10-11T12:20:44.207Z,102821.75
2022-10-11T12:23:43.537Z,102823.72
2022-10-11T12:26:36.817Z,102815.72
2022-10-11T12:29:05.996Z,102810.50
2022-10-11T12:31:41.303Z,102812.44
2022-10-11T12:34:10.192Z,102802.75
2022-10-11T12:36:42.896Z,102804.34
2022-10-11T12:39:18.155Z,102799.47
2022-10-11T12:41:47.616Z,102808.66
2022-10-11T12:47:00.055Z,102805.41
2022-10-11T12:49:57.776Z,102808.56
2022-10-11T12:53:05.254Z,102807.16
2022-10-11T12:56:00.020Z,102800.72
2022-10-11T12:58:46.401Z,102800.28
2022-10-11T13:01:18.065Z,102800.84
2022-10-11T13:06:29.726Z,102789.31
2022-10-11T13:09:04.652Z,102791.38
2022-10-11T13:11:38.764Z,102795.78
2022-10-11T13:14:29.237Z,102790.69
2022-10-11T13:17:44.268Z,102777.59
2022-10-11T13:20:17.763Z,102784.97
2022-10-11T13:22:48.350Z,102784.38
2022-10-11T13:25:48.520Z,102785.38
2022-10-11T13:37:53.353Z,102782.28
2022-10-11T13:43:42.849Z,102783.69
2022-10-11T13:46:43.875Z,102774.47
2022-10-11T13:52:27.597Z,102780.97
2022-10-11T13:55:02.969Z,102768.88
2022-10-11T13:57:45.050Z,102768.88
2022-10-11T14:00:32.213Z,102770.19
2022-10-11T14:03:24.771Z,102763.94
2022-10-11T14:06:01.750Z,102769.19
2022-10-11T14:08:54.151Z,102767.69
2022-10-11T14:11:36.574Z,102762.09
2022-10-11T14:14:30.025Z,102756.63
2022-10-11T14:16:59.587Z,102766.25
2022-10-11T14:19:26.380Z,102744.84
2022-10-11T14:21:53.296Z,102758.03
2022-10-11T14:24:20.799Z,102757.19
2022-10-11T14:26:54.570Z,102761.72
2022-10-11T14:32:37.059Z,102754.66
2022-10-11T14:35:04.347Z,102752.88
2022-10-11T14:37:43.177Z,102750.59
2022-10-11T14:40:14.149Z,102751.72
2022-10-11T14:42:41.120Z,102753.31
2022-10-11T14:45:13.617Z,102755.97
2022-10-11T14:47:43.549Z,102753.56
2022-10-11T14:50:44.849Z,102747.31
2022-10-11T14:53:12.391Z,102749.91
2022-10-11T14:55:44.188Z,102751.41
2022-10-11T14:58:17.522Z,102747.63
2022-10-11T15:00:51.199Z,102751.84
2022-10-11T15:03:52.872Z,102753.25
2022-10-11T15:06:48.842Z,102753.66
2022-10-11T15:09:44.869Z,102751.97
2022-10-11T15:12:27.057Z,102750.50
2022-10-11T15:14:57.551Z,102750.63
2022-10-11T15:17:31.208Z,102751.88
2022-10-11T15:36:37.998Z,102743.28
2022-10-11T15:39:07.525Z,102747.78
2022-10-11T15:41:36.458Z,102738.03
2022-10-11T15:44:03.340Z,102735.63
2022-10-11T15:46:41.613Z,102741.44
2022-10-11T15:49:13.576Z,102736.63
2022-10-11T15:51:41.131Z,102739.25
2022-10-11T15:54:07.644Z,102735.16
2022-10-11T15:56:34.327Z,102734.09
2022-10-11T15:59:01.811Z,102731.00
2022-10-11T16:01:29.890Z,102723.56
2022-10-11T16:03:56.546Z,102721.91
2022-10-11T16:06:23.674Z,102727.16
2022-10-11T16:08:50.342Z,102719.69
2022-10-11T16:11:24.353Z,102718.50
2022-10-11T16:13:50.829Z,102721.47
2022-10-11T16:16:17.645Z,102725.56
2022-10-11T16:18:44.580Z,102720.03
2022-10-11T16:21:15.667Z,102726.50
2022-10-11T16:23:46.130Z,102727.53
2022-10-11T16:26:14.625Z,102723.88
2022-10-11T16:28:44.794Z,102724.22
2022-10-11T16:31:21.347Z,102724.44
2022-10-11T16:34:00.440Z,102720.91
2022-10-11T16:36:41.021Z,102725.88
2022-10-11T16:39:15.971Z,102730.38
2022-10-11T16:41:43.284Z,102731.84
2022-10-11T16:44:20.889Z,102736.28
2022-10-11T16:46:49.204Z,102732.31
2022-10-11T16:49:17.879Z,102741.25
2022-10-11T16:51:44.659Z,102738.22
2022-10-11T16:54:13.723Z,102749.84
2022-10-11T16:56:44.150Z,102744.72
2022-10-11T16:59:12.068Z,102740.06
2022-10-11T17:01:46.807Z,102738.44
2022-10-11T17:04:14.027Z,102738.91
2022-10-11T17:06:43.909Z,102741.59
2022-10-11T17:09:11.515Z,102736.31
2022-10-11T17:11:41.401Z,102740.22
2022-10-11T17:14:08.782Z,102736.38
2022-10-11T17:16:36.170Z,102741.78
2022-10-11T17:19:18.065Z,102744.13
2022-10-11T17:21:44.622Z,102739.63
2022-10-11T17:24:11.252Z,102747.91
2022-10-11T17:26:39.354Z,102745.63
2022-10-11T17:29:06.746Z,102741.25
2022-10-11T17:31:33.280Z,102747.63
2022-10-11T17:34:01.167Z,102748.72
2022-10-11T17:36:34.520Z,102745.22
2022-10-11T17:39:06.860Z,102750.78
2022-10-11T17:41:33.416Z,102742.16
2022-10-11T17:44:02.898Z,102747.88
2022-10-11T17:46:32.906Z,102744.19
2022-10-11T17:49:01.395Z,102739.38
2022-10-11T17:51:28.016Z,102748.25
2022-10-11T17:53:54.591Z,102749.63
2022-10-11T17:56:28.121Z,102741.66
2022-10-11T17:58:58.333Z,102749.28
2022-10-11T18:01:28.680Z,102754.03
2022-10-11T18:04:00.824Z,102742.31
2022-10-11T18:06:29.754Z,102740.31
2022-10-11T18:08:59.513Z,102753.38
2022-10-11T18:11:25.988Z,102744.13
2022-10-11T18:13:55.735Z,102745.56
2022-10-11T18:16:24.688Z,102740.44
2022-10-11T18:18:51.368Z,102739.94
2022-10-11T18:21:18.749Z,102746.88
2022-10-11T18:23:45.741Z,102748.41
2022-10-11T18:26:17.094Z,102743.91
2022-10-11T18:28:50.433Z,102748.50
2022-10-11T18:31:23.228Z,102742.91
2022-10-11T18:36:27.890Z,102749.22
2022-10-11T18:38:57.457Z,102752.03
2022-10-11T18:41:30.648Z,102754.03
2022-10-11T18:44:00.332Z,102750.13
2022-10-11T18:46:27.908Z,102754.41
2022-10-11T18:48:56.310Z,102747.00
2022-10-11T18:51:25.154Z,102740.91
2022-10-11T18:53:52.494Z,102749.69
2022-10-11T18:56:20.830Z,102741.38
2022-10-11T18:58:49.206Z,102734.69
2022-10-11T19:01:22.049Z,102730.16
2022-10-11T19:03:52.589Z,102742.97
2022-10-11T19:06:47.961Z,102739.25
2022-10-11T19:09:17.814Z,102741.25
2022-10-11T19:11:48.588Z,102744.63
2022-10-11T19:14:17.534Z,102737.50
2022-10-11T19:16:49.119Z,102739.72
2022-10-11T19:19:16.593Z,102743.50
2022-10-11T19:21:43.035Z,102740.31
2022-10-11T19:24:09.692Z,102731.41
2022-10-11T19:26:38.826Z,102736.28
2022-10-11T19:29:08.775Z,102735.28
2022-10-11T19:31:39.996Z,102733.16
2022-10-11T19:34:07.863Z,102726.75
2022-10-11T19:36:36.817Z,102732.44
2022-10-11T19:39:04.936Z,102729.03
2022-10-11T19:41:31.718Z,102729.09
2022-10-11T19:43:58.234Z,102735.09
2022-10-11T19:46:50.294Z,102730.06
2022-10-11T19:49:14.144Z,102723.94
2022-10-11T19:51:40.714Z,102728.31
2022-10-11T19:54:10.975Z,102723.81
2022-10-11T19:56:37.552Z,102720.34
2022-10-11T19:59:06.548Z,102719.63
2022-10-11T20:01:55.856Z,102708.41
2022-10-11T20:04:50.539Z,102717.06
2022-10-11T20:07:08.612Z,102718.78
2022-10-11T20:09:35.115Z,102723.44
2022-10-11T20:12:01.494Z,102721.31
2022-10-11T20:14:28.072Z,102720.53
2022-10-11T20:16:54.498Z,102718.97
2022-10-11T20:19:25.023Z,102728.72
2022-10-11T20:21:53.231Z,102724.41
2022-10-11T20:24:21.022Z,102732.50
2022-10-11T20:26:47.474Z,102729.56
2022-10-11T20:29:13.801Z,102731.47
2022-10-11T20:31:41.738Z,102733.41
2022-10-11T20:34:10.112Z,102732.69
2022-10-11T20:36:36.659Z,102739.25
2022-10-11T20:39:04.807Z,102738.19
2022-10-11T20:44:49.625Z,102736.94
2022-10-11T20:47:16.108Z,102733.50
2022-10-11T20:49:45.359Z,102741.88
2022-10-11T20:52:11.828Z,102733.53
2022-10-11T20:54:40.576Z,102741.72
2022-10-11T20:57:07.232Z,102732.84
2022-10-11T20:59:33.627Z,102733.41
2022-10-11T21:02:00.041Z,102734.00
2022-10-11T21:04:26.590Z,102735.88
2022-10-11T21:06:52.951Z,102728.97
2022-10-11T21:09:19.512Z,102729.25
2022-10-11T21:11:46.229Z,102724.63
2022-10-11T21:14:12.781Z,102732.16
2022-10-11T21:16:39.245Z,102731.09
2022-10-11T21:19:06.394Z,102735.13
2022-10-11T21:21:33.070Z,102732.22
2022-10-11T21:24:01.248Z,102738.69
2022-10-11T21:26:28.702Z,102731.75
2022-10-11T21:28:55.374Z,102726.63
2022-10-11T21:31:23.108Z,102732.03
2022-10-11T21:33:50.000Z,102725.38
2022-10-11T21:36:22.390Z,102731.66
2022-10-11T21:38:50.149Z,102723.56
2022-10-11T21:41:20.029Z,102734.94
2022-10-11T21:43:47.296Z,102731.03
2022-10-11T21:46:47.576Z,102733.22
2022-10-11T21:49:13.613Z,102733.16
2022-10-11T21:51:40.154Z,102728.81
2022-10-11T21:54:06.838Z,102740.66
2022-10-11T21:56:33.209Z,102734.94
2022-10-11T21:58:59.761Z,102732.44
2022-10-11T22:01:26.434Z,102736.72
2022-10-11T22:03:54.003Z,102732.69
2022-10-11T22:06:20.848Z,102733.97
2022-10-11T22:08:47.887Z,102740.16
2022-10-11T22:11:14.379Z,102739.88
2022-10-11T22:13:40.888Z,102734.81
2022-10-11T22:16:12.638Z,102726.78
2022-10-11T22:18:39.829Z,102735.84
2022-10-11T22:21:18.631Z,102731.75
2022-10-11T22:23:47.870Z,102727.19
2022-10-11T22:26:22.214Z,102727.25
2022-10-11T22:28:49.161Z,102725.06
2022-10-11T22:31:18.273Z,102725.59
2022-10-11T22:36:12.756Z,102731.28
2022-10-11T22:38:41.695Z,102731.84
2022-10-11T22:41:08.933Z,102728.34
2022-10-11T22:43:35.869Z,102722.41
2022-10-11T22:46:02.725Z,102723.28
2022-10-11T22:48:29.209Z,102727.06
2022-10-11T22:50:55.585Z,102725.56
2022-10-11T22:53:22.097Z,102719.06
2022-10-11T22:55:48.568Z,102719.28
2022-10-11T22:58:15.030Z,102727.09
2022-10-11T23:00:41.563Z,102727.38
2022-10-11T23:03:08.089Z,102718.00
2022-10-11T23:05:35.504Z,102722.81
2022-10-11T23:08:01.886Z,102716.31
2022-10-11T23:10:28.337Z,102719.53
2022-10-11T23:12:54.713Z,102717.72
2022-10-11T23:15:21.106Z,102726.03
2022-10-11T23:17:48.373Z,102716.88
2022-10-11T23:20:14.852Z,102713.66
2022-10-11T23:22:41.398Z,102709.91
2022-10-11T23:25:08.325Z,102699.19
2022-10-11T23:27:34.795Z,102709.16
2022-10-11T23:30:01.341Z,102705.41
2022-10-11T23:32:27.755Z,102702.50
2022-10-11T23:34:54.280Z,102697.72
2022-10-11T23:37:20.796Z,102699.06
2022-10-11T23:39:47.240Z,102702.28
2022-10-11T23:42:13.685Z,102696.88
2022-10-11T23:44:40.040Z,102691.50
2022-10-11T23:47:06.411Z,102698.28
2022-10-11T23:49:32.868Z,102697.16
2022-10-11T23:51:59.264Z,102694.47
2022-10-11T23:54:25.727Z,102699.06
2022-10-11T23:56:52.249Z,102700.41
2022-10-11T23:59:18.705Z,102695.56
